createdAt,value
2019-01-11T00:02:25.380Z,81.47
2019-01-11T00:04:55.321Z,77.60
2019-01-11T00:07:25.442Z,74.63
2019-01-11T00:09:55.288Z,73.97
2019-01-11T00:12:25.108Z,72.33
2019-01-11T00:14:54.738Z,72.20
2019-01-11T00:17:24.350Z,70.33
2019-01-11T00:19:54.297Z,68.77
2019-01-11T00:22:24.090Z,67.73
2019-01-11T00:24:53.860Z,66.67
2019-01-11T00:27:23.763Z,66.97
2019-01-11T00:29:53.404Z,65.73
2019-01-11T00:32:23.009Z,63.43
2019-01-11T00:34:52.678Z,62.00
2019-01-11T00:37:22.107Z,63.23
2019-01-11T00:39:51.805Z,63.27
2019-01-11T00:42:21.436Z,62.80
2019-01-11T00:44:51.463Z,61.03
2019-01-11T00:47:22.854Z,60.70
2019-01-11T00:49:52.563Z,62.40
2019-01-11T00:52:22.374Z,57.53
2019-01-11T00:54:52.021Z,56.23
2019-01-11T00:57:21.919Z,56.13
2019-01-11T00:59:52.072Z,53.70
2019-01-11T01:02:22.422Z,52.57
2019-01-11T01:04:52.343Z,53.33
2019-01-11T01:07:22.156Z,52.40
2019-01-11T01:09:51.994Z,50.67
2019-01-11T01:12:22.517Z,51.67
2019-01-11T01:14:52.307Z,49.77
2019-01-11T01:17:21.993Z,46.97
2019-01-11T01:19:51.846Z,48.00
2019-01-11T01:22:21.754Z,46.30
2019-01-11T01:24:51.605Z,47.40
2019-01-11T01:27:21.441Z,46.90
2019-01-11T01:29:51.162Z,46.30
2019-01-11T01:32:20.782Z,46.60
2019-01-11T01:34:50.613Z,43.60
2019-01-11T01:37:20.635Z,44.07
2019-01-11T01:39:50.682Z,44.60
2019-01-11T01:42:20.587Z,43.40
2019-01-11T01:44:50.337Z,41.57
2019-01-11T01:47:20.167Z,42.17
2019-01-11T01:49:49.888Z,39.73
2019-01-11T01:52:19.927Z,39.57
2019-01-11T01:54:51.037Z,38.13
2019-01-11T01:57:20.809Z,40.20
2019-01-11T01:59:50.544Z,36.60
2019-01-11T02:02:20.361Z,37.40
2019-01-11T02:04:50.192Z,36.53
2019-01-11T02:07:19.933Z,35.40
2019-01-11T02:09:50.053Z,34.13
2019-01-11T02:12:19.885Z,34.83
2019-01-11T02:14:49.933Z,34.00
2019-01-11T02:17:19.542Z,32.87
2019-01-11T02:19:49.381Z,32.27
2019-01-11T02:22:19.400Z,31.37
2019-01-11T02:24:48.933Z,30.27
2019-01-11T02:27:18.560Z,30.87
2019-01-11T02:29:48.374Z,29.97
2019-01-11T02:32:18.117Z,29.33
2019-01-11T02:34:47.940Z,26.87
2019-01-11T02:37:17.671Z,27.90
2019-01-11T02:39:48.565Z,27.97
2019-01-11T02:42:18.358Z,26.40
2019-01-11T02:44:48.189Z,27.77
2019-01-11T02:47:18.008Z,25.10
2019-01-11T02:49:47.748Z,24.63
2019-01-11T02:52:17.560Z,25.20
2019-01-11T02:54:47.377Z,23.07
2019-01-11T02:57:17.313Z,24.33
2019-01-11T02:59:47.062Z,23.63
2019-01-11T03:02:16.888Z,23.30
2019-01-11T03:04:46.819Z,22.67
2019-01-11T03:07:16.743Z,22.37
2019-01-11T03:09:46.585Z,21.23
2019-01-11T03:12:17.492Z,21.47
2019-01-11T03:14:47.262Z,21.00
2019-01-11T03:17:16.875Z,20.80
2019-01-11T03:19:48.066Z,20.33
2019-01-11T03:22:17.972Z,19.37
2019-01-11T03:24:47.780Z,20.23
2019-01-11T03:27:17.524Z,20.10
2019-01-11T03:29:47.340Z,21.07
2019-01-11T03:32:17.182Z,19.60
2019-01-11T03:35:11.730Z,18.90
2019-01-11T03:37:41.596Z,18.73
2019-01-11T03:40:11.873Z,19.33
2019-01-11T03:42:41.685Z,19.00
2019-01-11T03:45:12.235Z,18.80
2019-01-11T03:47:42.046Z,18.33
2019-01-11T03:50:11.885Z,18.20
2019-01-11T03:52:41.509Z,18.90
2019-01-11T03:55:12.664Z,17.43
2019-01-11T03:57:43.929Z,16.70
2019-01-11T04:00:19.056Z,16.90
2019-01-11T04:02:48.605Z,17.17
2019-01-11T04:05:18.441Z,16.30
2019-01-11T04:07:49.818Z,16.03
2019-01-11T04:10:26.488Z,15.43
2019-01-11T04:12:56.298Z,15.63
2019-01-11T04:15:26.059Z,15.13
2019-01-11T04:18:13.571Z,15.80
2019-01-11T04:20:43.311Z,16.00
2019-01-11T04:23:13.124Z,15.60
2019-01-11T04:25:46.964Z,15.50
2019-01-11T04:28:16.894Z,13.80
2019-01-11T04:30:46.512Z,15.23
2019-01-11T04:33:16.244Z,14.17
2019-01-11T04:35:46.073Z,15.27
2019-01-11T04:38:15.779Z,14.07
2019-01-11T04:40:45.518Z,14.40
2019-01-11T04:43:15.458Z,14.60
2019-01-11T04:45:47.081Z,16.40
2019-01-11T04:48:16.854Z,15.57
2019-01-11T04:50:46.581Z,16.17
2019-01-11T04:53:16.302Z,16.90
2019-01-11T04:55:46.148Z,17.27
2019-01-11T04:58:15.957Z,15.03
2019-01-11T05:00:45.813Z,15.60
2019-01-11T05:03:15.737Z,15.63
2019-01-11T05:05:45.653Z,15.37
2019-01-11T05:08:15.302Z,14.13
2019-01-11T05:10:45.208Z,13.77
2019-01-11T05:13:39.861Z,13.73
2019-01-11T05:16:09.743Z,14.40
2019-01-11T05:18:39.677Z,13.80
2019-01-11T05:21:09.533Z,13.83
2019-01-11T05:23:39.118Z,13.80
2019-01-11T05:26:08.855Z,13.87
2019-01-11T05:28:38.774Z,12.63
2019-01-11T05:31:08.817Z,12.60
2019-01-11T05:33:38.445Z,12.63
2019-01-11T05:36:08.342Z,13.30
2019-01-11T05:38:38.030Z,13.00
2019-01-11T05:41:07.729Z,12.20
2019-01-11T05:43:37.454Z,12.50
2019-01-11T05:46:07.172Z,12.33
2019-01-11T05:48:36.999Z,12.50
2019-01-11T05:51:06.839Z,12.73
2019-01-11T05:53:38.354Z,11.80
2019-01-11T05:56:10.593Z,11.47
2019-01-11T05:59:01.928Z,12.23
2019-01-11T06:01:31.888Z,11.90
2019-01-11T06:04:03.232Z,12.47
2019-01-11T06:06:52.018Z,12.23
2019-01-11T06:09:21.794Z,12.23
2019-01-11T06:11:51.856Z,12.53
2019-01-11T06:14:21.761Z,13.47
2019-01-11T06:16:52.586Z,12.60
2019-01-11T06:19:22.454Z,13.70
2019-01-11T06:21:52.170Z,14.17
2019-01-11T06:24:22.108Z,14.73
2019-01-11T06:26:53.227Z,14.70
2019-01-11T06:29:23.003Z,13.50
2019-01-11T06:31:53.209Z,13.50
2019-01-11T06:34:22.844Z,12.80
2019-01-11T06:36:52.776Z,12.63
2019-01-11T06:39:22.504Z,14.43
2019-01-11T06:41:55.793Z,12.67
2019-01-11T06:44:25.433Z,12.77
2019-01-11T06:46:55.172Z,12.40
2019-01-11T06:49:24.577Z,12.20
2019-01-11T06:51:54.507Z,12.73
2019-01-11T06:54:24.339Z,13.37
2019-01-11T06:56:54.077Z,11.67
2019-01-11T06:59:23.684Z,12.40
2019-01-11T07:01:53.526Z,11.63
2019-01-11T07:04:23.269Z,12.97
2019-01-11T07:06:52.898Z,13.20
2019-01-11T07:09:22.629Z,13.83
2019-01-11T07:11:53.845Z,14.90
2019-01-11T07:14:23.611Z,16.43
2019-01-11T07:16:53.529Z,17.70
2019-01-11T07:19:24.167Z,16.37
2019-01-11T07:21:55.881Z,16.13
2019-01-11T07:24:26.682Z,17.50
2019-01-11T07:26:56.329Z,17.10
2019-01-11T07:29:26.152Z,15.90
2019-01-11T07:31:57.453Z,15.47
2019-01-11T07:34:27.247Z,14.73
2019-01-11T07:36:57.849Z,15.47
2019-01-11T07:39:31.224Z,14.97
2019-01-11T07:42:00.936Z,15.23
2019-01-11T07:44:30.567Z,14.67
2019-01-11T07:47:00.386Z,15.47
2019-01-11T07:49:30.321Z,14.60
2019-01-11T07:52:02.196Z,13.70
2019-01-11T07:54:33.878Z,14.67
2019-01-11T07:57:03.599Z,14.20
2019-01-11T07:59:33.438Z,13.93
2019-01-11T08:02:03.349Z,14.20
2019-01-11T08:04:32.988Z,13.47
2019-01-11T08:07:04.261Z,14.37
2019-01-11T08:09:33.672Z,12.70
2019-01-11T08:12:03.581Z,12.87
2019-01-11T08:14:34.996Z,12.60
2019-01-11T08:17:04.678Z,12.87
2019-01-11T08:19:34.325Z,12.40
2019-01-11T08:22:04.421Z,12.80
2019-01-11T08:24:34.079Z,12.10
2019-01-11T08:27:03.783Z,11.67
2019-01-11T08:29:33.737Z,12.60
2019-01-11T08:32:03.662Z,11.90
2019-01-11T08:34:33.305Z,12.60
2019-01-11T08:37:03.219Z,12.17
2019-01-11T08:39:35.013Z,12.07
2019-01-11T08:42:05.032Z,12.23
2019-01-11T08:44:34.861Z,11.63
2019-01-11T08:47:04.560Z,11.57
2019-01-11T08:49:34.338Z,11.77
2019-01-11T08:52:05.710Z,11.60
2019-01-11T08:54:35.406Z,10.90
2019-01-11T08:57:05.526Z,11.63
2019-01-11T08:59:35.174Z,12.00
2019-01-11T09:02:04.677Z,11.37
2019-01-11T09:04:34.511Z,11.20
2019-01-11T09:07:04.344Z,10.60
2019-01-11T09:09:34.263Z,10.63
2019-01-11T09:12:04.321Z,11.30
2019-01-11T09:14:53.238Z,10.10
2019-01-11T09:17:24.801Z,11.60
2019-01-11T09:19:54.595Z,10.83
2019-01-11T09:22:24.497Z,11.30
2019-01-11T09:24:54.257Z,10.50
2019-01-11T09:27:23.981Z,11.00
2019-01-11T09:29:53.766Z,11.37
2019-01-11T09:32:23.637Z,11.53
2019-01-11T09:34:53.449Z,11.57
2019-01-11T09:37:23.283Z,11.00
2019-01-11T09:39:52.891Z,11.50
2019-01-11T09:42:22.849Z,10.67
2019-01-11T09:44:52.576Z,11.17
2019-01-11T09:47:22.302Z,11.70
2019-01-11T09:49:52.110Z,11.03
2019-01-11T09:52:22.062Z,11.10
2019-01-11T09:54:51.784Z,11.63
2019-01-11T09:57:21.488Z,11.27
2019-01-11T09:59:51.227Z,10.87
2019-01-11T10:02:35.471Z,11.30
2019-01-11T10:05:06.242Z,11.87
2019-01-11T10:07:35.958Z,11.73
2019-01-11T10:10:07.714Z,11.70
2019-01-11T10:12:37.273Z,11.40
2019-01-11T10:15:09.129Z,12.00
2019-01-11T10:17:40.005Z,12.33
2019-01-11T10:20:10.737Z,12.10
2019-01-11T10:22:40.682Z,11.50
2019-01-11T10:25:11.949Z,11.63
2019-01-11T10:27:41.871Z,11.73
2019-01-11T10:30:13.939Z,10.80
2019-01-11T10:32:43.489Z,11.00
2019-01-11T10:35:13.206Z,11.13
2019-01-11T10:37:44.712Z,11.50
2019-01-11T10:40:15.616Z,10.60
2019-01-11T10:42:45.462Z,10.57
2019-01-11T10:45:20.398Z,10.87
2019-01-11T10:47:52.174Z,11.10
2019-01-11T10:50:21.889Z,11.20
2019-01-11T10:52:51.621Z,11.50
2019-01-11T10:55:21.940Z,10.80
2019-01-11T10:57:51.686Z,10.60
2019-01-11T11:00:30.307Z,11.63
2019-01-11T11:03:00.155Z,13.30
2019-01-11T11:05:30.076Z,13.50
2019-01-11T11:07:59.806Z,13.33
2019-01-11T11:10:48.367Z,11.50
2019-01-11T11:13:17.893Z,12.17
2019-01-11T11:15:48.322Z,13.07
2019-01-11T11:18:18.277Z,11.80
2019-01-11T11:20:48.098Z,11.50
2019-01-11T11:23:18.014Z,11.40
2019-01-11T11:25:47.843Z,12.83
2019-01-11T11:28:17.574Z,12.10
2019-01-11T11:30:50.924Z,13.60
2019-01-11T11:33:21.166Z,12.70
2019-01-11T11:35:51.047Z,12.43
2019-01-11T11:38:20.908Z,12.33
2019-01-11T11:40:50.715Z,11.83
2019-01-11T11:43:20.555Z,12.03
2019-01-11T11:45:50.390Z,12.20
2019-01-11T11:48:20.017Z,13.37
2019-01-11T11:50:49.833Z,13.30
2019-01-11T11:53:19.664Z,13.57
2019-01-11T11:55:49.580Z,13.47
2019-01-11T11:58:19.341Z,13.30
2019-01-11T12:00:49.266Z,14.40
2019-01-11T12:03:20.659Z,13.03
2019-01-11T12:05:50.747Z,14.03
2019-01-11T12:08:20.687Z,14.00
2019-01-11T12:10:52.103Z,14.43
2019-01-11T12:13:21.979Z,13.77
2019-01-11T12:15:51.807Z,13.50
2019-01-11T12:18:21.535Z,15.97
2019-01-11T12:20:51.161Z,15.33
2019-01-11T12:23:20.995Z,14.93
2019-01-11T12:25:50.824Z,15.50
2019-01-11T12:28:20.777Z,15.90
2019-01-11T12:30:50.653Z,15.13
2019-01-11T12:33:20.321Z,15.93
2019-01-11T12:35:50.013Z,15.20
2019-01-11T12:38:19.668Z,14.13
2019-01-11T12:40:49.280Z,15.63
2019-01-11T12:43:19.011Z,17.03
2019-01-11T12:45:48.735Z,15.87
2019-01-11T12:48:18.374Z,15.63
2019-01-11T12:50:48.090Z,15.23
2019-01-11T12:53:18.036Z,14.83
2019-01-11T12:55:47.744Z,14.30
2019-01-11T12:58:17.476Z,14.67
2019-01-11T13:00:49.904Z,14.27
2019-01-11T13:03:19.486Z,13.83
2019-01-11T13:05:50.143Z,14.57
2019-01-11T13:08:22.954Z,14.70
2019-01-11T13:10:55.898Z,14.83
2019-01-11T13:13:26.565Z,14.00
2019-01-11T13:15:56.200Z,14.10
2019-01-11T13:18:25.929Z,14.40
2019-01-11T13:20:59.231Z,14.33
2019-01-11T13:23:31.423Z,14.00
2019-01-11T13:26:04.459Z,14.50
2019-01-11T13:28:35.455Z,15.23
2019-01-11T13:31:05.317Z,15.10
2019-01-11T13:33:36.408Z,16.20
2019-01-11T13:36:12.120Z,15.60
2019-01-11T13:38:41.984Z,16.23
2019-01-11T13:41:11.796Z,15.80
2019-01-11T13:43:41.440Z,14.70
2019-01-11T13:46:11.151Z,14.97
2019-01-11T13:48:40.877Z,15.10
2019-01-11T13:51:10.702Z,14.87
2019-01-11T13:53:40.547Z,15.17
2019-01-11T13:56:10.465Z,14.20
2019-01-11T13:58:40.287Z,14.90
2019-01-11T14:01:10.156Z,15.30
2019-01-11T14:03:39.965Z,15.50
2019-01-11T14:06:09.672Z,16.03
2019-01-11T14:08:39.325Z,16.07
2019-01-11T14:11:09.129Z,16.20
2019-01-11T14:13:39.883Z,15.67
2019-01-11T14:16:09.717Z,15.60
2019-01-11T14:18:39.660Z,14.87
2019-01-11T14:21:09.463Z,14.40
2019-01-11T14:23:39.202Z,15.90
2019-01-11T14:26:08.834Z,14.17
2019-01-11T14:28:38.454Z,16.20
2019-01-11T14:31:08.282Z,16.23
2019-01-11T14:33:38.115Z,15.60
2019-01-11T14:36:07.748Z,14.73
2019-01-11T14:38:37.461Z,15.00
2019-01-11T14:41:07.298Z,14.93
2019-01-11T14:43:37.319Z,14.70
2019-01-11T14:46:06.961Z,15.60
2019-01-11T14:48:38.080Z,16.33
2019-01-11T14:51:07.940Z,16.70
2019-01-11T14:53:37.653Z,15.80
2019-01-11T14:56:07.516Z,15.47
2019-01-11T14:58:37.326Z,16.13
2019-01-11T15:01:07.170Z,15.87
2019-01-11T15:03:37.680Z,16.97
2019-01-11T15:06:07.340Z,16.40
2019-01-11T15:08:37.155Z,15.23
2019-01-11T15:11:06.875Z,14.80
2019-01-11T15:13:36.825Z,16.43
2019-01-11T15:16:06.543Z,15.73
2019-01-11T15:18:36.469Z,15.93
2019-01-11T15:21:06.216Z,15.30
2019-01-11T15:23:36.047Z,15.03
2019-01-11T15:26:05.862Z,16.20
2019-01-11T15:28:35.480Z,15.73
2019-01-11T15:31:05.319Z,14.93
2019-01-11T15:33:35.249Z,15.50
2019-01-11T15:36:05.083Z,16.87
2019-01-11T15:38:34.582Z,14.60
2019-01-11T15:41:04.340Z,15.73
2019-01-11T15:43:34.252Z,15.13
2019-01-11T15:46:04.960Z,14.30
2019-01-11T15:48:51.005Z,14.07
2019-01-11T15:51:23.400Z,14.90
2019-01-11T15:53:53.424Z,14.30
2019-01-11T15:56:26.646Z,14.33
2019-01-11T15:58:56.465Z,13.73
2019-01-11T16:01:26.305Z,14.23
2019-01-11T16:03:56.129Z,14.13
2019-01-11T16:06:30.471Z,13.07
2019-01-11T16:09:56.981Z,13.93
2019-01-11T16:12:47.148Z,24.93
2019-01-11T16:15:54.175Z,27.33
2019-01-11T16:18:26.426Z,25.50
2019-01-11T16:20:56.202Z,25.60
2019-01-11T16:23:29.034Z,34.30
2019-01-11T16:25:58.803Z,31.67
2019-01-11T16:28:28.413Z,30.23
2019-01-11T16:30:58.383Z,30.90
2019-01-11T16:33:28.077Z,29.73
2019-01-11T16:35:57.896Z,29.40
2019-01-11T16:38:28.436Z,27.70
2019-01-11T16:40:58.164Z,28.57
2019-01-11T16:43:27.903Z,28.43
2019-01-11T16:45:57.735Z,26.40
2019-01-11T16:48:27.484Z,26.17
2019-01-11T16:50:57.393Z,26.23
2019-01-11T16:53:27.460Z,24.77
2019-01-11T16:55:57.948Z,25.77
2019-01-11T16:58:27.613Z,25.37
2019-01-11T17:00:59.479Z,25.07
2019-01-11T17:03:29.129Z,24.53
2019-01-11T17:05:58.838Z,24.70
2019-01-11T17:08:28.674Z,23.50
2019-01-11T17:10:58.438Z,24.77
2019-01-11T17:13:27.918Z,23.57
2019-01-11T17:15:58.547Z,28.97
2019-01-11T17:18:28.392Z,27.07
2019-01-11T17:20:58.436Z,26.23
2019-01-11T17:23:28.364Z,28.70
2019-01-11T17:25:58.197Z,28.97
2019-01-11T17:28:28.010Z,28.00
2019-01-11T17:30:57.631Z,30.03
2019-01-11T17:33:27.487Z,30.63
2019-01-11T17:35:57.283Z,28.47
2019-01-11T17:38:28.252Z,28.33
2019-01-11T17:40:58.169Z,27.90
2019-01-11T17:43:28.436Z,26.47
2019-01-11T17:45:58.369Z,27.03
2019-01-11T17:48:27.811Z,27.77
2019-01-11T17:50:57.492Z,26.83
2019-01-11T17:53:27.437Z,26.00
2019-01-11T17:55:57.165Z,24.40
2019-01-11T17:58:27.006Z,24.77
2019-01-11T18:00:56.912Z,24.40
2019-01-11T18:03:26.665Z,25.00
2019-01-11T18:05:56.365Z,23.60
2019-01-11T18:08:26.119Z,22.93
2019-01-11T18:10:55.815Z,21.80
2019-01-11T18:13:25.672Z,22.27
2019-01-11T18:15:55.596Z,23.13
2019-01-11T18:18:25.522Z,23.37
2019-01-11T18:20:55.440Z,22.33
2019-01-11T18:23:25.550Z,22.93
2019-01-11T18:25:55.350Z,21.70
2019-01-11T18:28:25.324Z,21.97
2019-01-11T18:30:55.543Z,22.43
2019-01-11T18:33:25.466Z,22.27
2019-01-11T18:35:55.333Z,20.13
2019-01-11T18:38:25.179Z,20.53
2019-01-11T18:40:54.917Z,20.50
2019-01-11T18:43:24.556Z,19.70
2019-01-11T18:45:54.476Z,20.40
2019-01-11T18:48:24.672Z,20.27
2019-01-11T18:50:56.669Z,19.43
2019-01-11T18:53:26.536Z,20.90
2019-01-11T18:55:57.421Z,48.23
2019-01-11T18:58:27.121Z,21.43
2019-01-11T19:00:57.083Z,21.07
2019-01-11T19:03:27.033Z,20.27
2019-01-11T19:05:59.014Z,20.13
2019-01-11T19:08:30.877Z,18.10
2019-01-11T19:11:00.641Z,18.40
2019-01-11T19:13:30.252Z,18.40
2019-01-11T19:16:00.092Z,17.90
2019-01-11T19:18:29.821Z,19.40
2019-01-11T19:21:09.097Z,21.61
2019-01-11T19:23:38.797Z,18.33
2019-01-11T19:26:08.723Z,18.57
2019-01-11T19:28:38.555Z,18.93
2019-01-11T19:31:08.585Z,18.80
2019-01-11T19:33:38.425Z,18.03
2019-01-11T19:36:08.231Z,18.33
2019-01-11T19:38:38.089Z,17.43
2019-01-11T19:41:07.792Z,17.20
2019-01-11T19:43:37.335Z,19.60
2019-01-11T19:46:07.259Z,18.00
2019-01-11T19:48:37.086Z,17.43
2019-01-11T19:51:06.897Z,17.90
2019-01-11T19:53:38.384Z,17.63
2019-01-11T19:56:07.792Z,17.80
2019-01-11T19:58:38.652Z,17.27
2019-01-11T20:01:08.307Z,18.37
2019-01-11T20:03:38.218Z,25.50
2019-01-11T20:06:08.139Z,27.40
2019-01-11T20:08:38.182Z,27.37
2019-01-11T20:11:08.039Z,26.87
2019-01-11T20:13:37.868Z,28.70
2019-01-11T20:16:07.680Z,26.30
2019-01-11T20:18:37.293Z,27.90
2019-01-11T20:21:07.220Z,29.17
2019-01-11T20:23:37.098Z,27.73
2019-01-11T20:26:06.798Z,26.77
2019-01-11T20:28:36.604Z,26.03
2019-01-11T20:31:08.634Z,26.23
2019-01-11T20:33:40.663Z,27.03
2019-01-11T20:36:10.609Z,26.03
2019-01-11T20:38:40.354Z,25.20
2019-01-11T20:41:09.770Z,24.83
2019-01-11T20:43:39.482Z,24.30
2019-01-11T20:46:09.295Z,24.30
2019-01-11T20:48:39.234Z,25.30
2019-01-11T20:51:08.965Z,25.10
2019-01-11T20:53:41.671Z,24.07
2019-01-11T20:56:10.273Z,24.60
2019-01-11T20:58:39.977Z,24.50
2019-01-11T21:01:10.321Z,24.13
2019-01-11T21:03:40.149Z,22.57
2019-01-11T21:06:10.097Z,23.50
2019-01-11T21:08:39.705Z,23.33
2019-01-11T21:11:09.560Z,22.43
2019-01-11T21:13:39.569Z,22.40
2019-01-11T21:16:10.666Z,22.40
2019-01-11T21:18:40.677Z,22.60
2019-01-11T21:21:10.496Z,22.00
2019-01-11T21:23:40.321Z,60.47
2019-01-11T21:26:11.741Z,68.33
2019-01-11T21:28:41.723Z,66.60
2019-01-11T21:31:11.591Z,66.30
2019-01-11T21:33:41.485Z,70.30
2019-01-11T21:36:11.446Z,69.60
2019-01-11T21:38:41.265Z,72.13
2019-01-11T21:41:11.077Z,72.97
2019-01-11T21:43:41.906Z,79.27
2019-01-11T21:46:11.645Z,79.63
2019-01-11T21:48:41.481Z,83.83
2019-01-11T21:51:11.304Z,82.83
2019-01-11T21:53:41.123Z,87.43
2019-01-11T21:56:10.850Z,89.63
2019-01-11T21:58:40.609Z,94.40
2019-01-11T22:01:10.328Z,99.60
2019-01-11T22:03:40.148Z,100.53
2019-01-11T22:06:09.894Z,104.40
2019-01-11T22:08:39.615Z,106.23
2019-01-11T22:11:09.448Z,102.77
2019-01-11T22:13:39.257Z,109.00
2019-01-11T22:16:09.095Z,110.37
2019-01-11T22:18:40.286Z,113.17
2019-01-11T22:21:09.893Z,117.70
2019-01-11T22:23:41.690Z,119.40
2019-01-11T22:26:11.582Z,98.00
2019-01-11T22:28:41.408Z,99.47
2019-01-11T22:31:11.254Z,112.07
2019-01-11T22:33:41.079Z,111.60
2019-01-11T22:36:10.695Z,111.73
2019-01-11T22:38:40.517Z,120.87
2019-01-11T22:41:10.363Z,120.47
2019-01-11T22:43:40.191Z,121.30
2019-01-11T22:46:10.112Z,117.50
2019-01-11T22:48:40.944Z,118.73
2019-01-11T22:51:10.920Z,120.60
2019-01-11T22:53:40.630Z,119.83
2019-01-11T22:56:10.459Z,122.13
2019-01-11T22:58:40.405Z,126.40
2019-01-11T23:02:05.502Z,118.33
2019-01-11T23:04:35.524Z,121.33
2019-01-11T23:07:29.138Z,119.90
2019-01-11T23:10:46.368Z,116.70
2019-01-11T23:13:17.164Z,117.13
2019-01-11T23:15:50.763Z,113.20
2019-01-11T23:18:22.658Z,114.90
2019-01-11T23:20:54.834Z,111.27
2019-01-11T23:23:24.681Z,109.30
2019-01-11T23:25:54.406Z,104.47
2019-01-11T23:28:25.243Z,104.57
2019-01-11T23:30:54.974Z,99.47
2019-01-11T23:33:26.031Z,98.13
2019-01-11T23:35:55.740Z,95.33
2019-01-11T23:38:25.523Z,92.43
2019-01-11T23:40:55.006Z,87.90
2019-01-11T23:43:24.946Z,87.40
2019-01-11T23:45:54.752Z,85.40
2019-01-11T23:48:24.583Z,82.93
2019-01-11T23:50:55.135Z,82.70
2019-01-11T23:53:24.974Z,79.73
2019-01-11T23:55:54.792Z,89.40
2019-01-11T23:58:24.545Z,85.30
